sensor_id;sensor_type;location;lat;lon;timestamp;P1;durP1;ratioP1;P2;durP2;ratioP2
11791;SDS011;5953;52.372;9.918;2022-07-01T00:02:25;6.32;;;4.30;;
11791;SDS011;5953;52.372;9.918;2022-07-01T00:04:53;6.10;;;4.90;;
11791;SDS011;5953;52.372;9.918;2022-07-01T00:07:22;6.55;;;5.22;;
11791;SDS011;5953;52.372;9.918;2022-07-01T00:09:50;10.32;;;4.93;;
11791;SDS011;5953;52.372;9.918;2022-07-01T00:12:18;9.07;;;4.93;;
11791;SDS011;5953;52.372;9.918;2022-07-01T00:14:50;7.10;;;5.10;;
11791;SDS011;5953;52.372;9.918;2022-07-01T00:17:17;9.40;;;5.45;;
11791;SDS011;5953;52.372;9.918;2022-07-01T00:19:45;4.67;;;4.27;;
11791;SDS011;5953;52.372;9.918;2022-07-01T00:22:14;5.68;;;5.07;;
11791;SDS011;5953;52.372;9.918;2022-07-01T00:24:43;7.13;;;4.93;;
11791;SDS011;5953;52.372;9.918;2022-07-01T00:27:12;8.10;;;5.18;;
11791;SDS011;5953;52.372;9.918;2022-07-01T00:29:40;6.38;;;4.93;;
11791;SDS011;5953;52.372;9.918;2022-07-01T00:32:08;6.50;;;5.00;;
11791;SDS011;5953;52.372;9.918;2022-07-01T00:34:36;4.93;;;4.50;;
11791;SDS011;5953;52.372;9.918;2022-07-01T00:37:04;5.07;;;4.57;;
11791;SDS011;5953;52.372;9.918;2022-07-01T00:39:32;5.40;;;4.57;;
11791;SDS011;5953;52.372;9.918;2022-07-01T00:42:04;5.00;;;4.50;;
11791;SDS011;5953;52.372;9.918;2022-07-01T00:44:32;7.83;;;5.00;;
11791;SDS011;5953;52.372;9.918;2022-07-01T00:47:02;4.60;;;4.20;;
11791;SDS011;5953;52.372;9.918;2022-07-01T00:49:31;5.43;;;4.87;;
11791;SDS011;5953;52.372;9.918;2022-07-01T00:51:59;4.47;;;4.07;;
11791;SDS011;5953;52.372;9.918;2022-07-01T00:54:27;8.67;;;3.07;;
11791;SDS011;5953;52.372;9.918;2022-07-01T00:56:55;3.43;;;2.83;;
11791;SDS011;5953;52.372;9.918;2022-07-01T00:59:25;3.70;;;2.80;;
11791;SDS011;5953;52.372;9.918;2022-07-01T01:01:54;3.50;;;2.80;;
11791;SDS011;5953;52.372;9.918;2022-07-01T01:04:22;3.40;;;2.90;;
11791;SDS011;5953;52.372;9.918;2022-07-01T01:06:51;3.13;;;2.57;;
11791;SDS011;5953;52.372;9.918;2022-07-01T01:09:18;2.83;;;2.60;;
11791;SDS011;5953;52.372;9.918;2022-07-01T01:11:46;3.17;;;2.90;;
11791;SDS011;5953;52.372;9.918;2022-07-01T01:14:16;3.67;;;2.63;;
11791;SDS011;5953;52.372;9.918;2022-07-01T01:16:45;3.63;;;3.33;;
11791;SDS011;5953;52.372;9.918;2022-07-01T01:19:13;3.50;;;3.03;;
11791;SDS011;5953;52.372;9.918;2022-07-01T01:21:42;5.83;;;3.90;;
11791;SDS011;5953;52.372;9.918;2022-07-01T01:24:10;5.60;;;3.90;;
11791;SDS011;5953;52.372;9.918;2022-07-01T01:26:38;4.73;;;4.30;;
11791;SDS011;5953;52.372;9.918;2022-07-01T01:29:06;5.00;;;4.50;;
11791;SDS011;5953;52.372;9.918;2022-07-01T01:31:34;5.03;;;4.60;;
11791;SDS011;5953;52.372;9.918;2022-07-01T01:34:02;6.23;;;5.23;;
11791;SDS011;5953;52.372;9.918;2022-07-01T01:36:30;6.47;;;5.87;;
11791;SDS011;5953;52.372;9.918;2022-07-01T01:38:59;6.47;;;5.87;;
11791;SDS011;5953;52.372;9.918;2022-07-01T01:41:30;6.87;;;6.10;;
11791;SDS011;5953;52.372;9.918;2022-07-01T01:43:58;7.43;;;5.70;;
11791;SDS011;5953;52.372;9.918;2022-07-01T01:46:26;6.20;;;5.57;;
11791;SDS011;5953;52.372;9.918;2022-07-01T01:48:55;6.30;;;5.80;;
11791;SDS011;5953;52.372;9.918;2022-07-01T01:51:23;5.07;;;4.57;;
11791;SDS011;5953;52.372;9.918;2022-07-01T01:53:51;6.43;;;5.40;;
11791;SDS011;5953;52.372;9.918;2022-07-01T01:56:21;5.97;;;5.40;;
11791;SDS011;5953;52.372;9.918;2022-07-01T01:58:48;6.70;;;6.10;;
11791;SDS011;5953;52.372;9.918;2022-07-01T02:01:17;7.60;;;5.60;;
11791;SDS011;5953;52.372;9.918;2022-07-01T02:03:46;7.00;;;5.33;;
11791;SDS011;5953;52.372;9.918;2022-07-01T02:06:16;6.70;;;6.00;;
11791;SDS011;5953;52.372;9.918;2022-07-01T02:08:45;6.00;;;5.07;;
11791;SDS011;5953;52.372;9.918;2022-07-01T02:11:14;4.70;;;4.20;;
11791;SDS011;5953;52.372;9.918;2022-07-01T02:13:43;4.60;;;4.10;;
11791;SDS011;5953;52.372;9.918;2022-07-01T02:16:12;4.93;;;4.20;;
11791;SDS011;5953;52.372;9.918;2022-07-01T02:18:40;7.47;;;4.87;;
11791;SDS011;5953;52.372;9.918;2022-07-01T02:21:07;4.90;;;4.00;;
11791;SDS011;5953;52.372;9.918;2022-07-01T02:23:36;5.10;;;4.60;;
11791;SDS011;5953;52.372;9.918;2022-07-01T02:26:04;5.33;;;4.33;;
11791;SDS011;5953;52.372;9.918;2022-07-01T02:28:32;6.37;;;4.67;;
11791;SDS011;5953;52.372;9.918;2022-07-01T02:31:02;7.27;;;3.77;;
11791;SDS011;5953;52.372;9.918;2022-07-01T02:33:30;5.83;;;4.10;;
11791;SDS011;5953;52.372;9.918;2022-07-01T02:35:58;5.40;;;4.30;;
11791;SDS011;5953;52.372;9.918;2022-07-01T02:38:26;5.63;;;4.47;;
11791;SDS011;5953;52.372;9.918;2022-07-01T02:40:54;3.90;;;3.40;;
11791;SDS011;5953;52.372;9.918;2022-07-01T02:43:22;6.50;;;3.40;;
11791;SDS011;5953;52.372;9.918;2022-07-01T02:45:49;3.23;;;2.93;;
11791;SDS011;5953;52.372;9.918;2022-07-01T02:48:19;2.93;;;2.50;;
11791;SDS011;5953;52.372;9.918;2022-07-01T02:50:47;2.83;;;1.97;;
11791;SDS011;5953;52.372;9.918;2022-07-01T02:53:15;1.93;;;1.83;;
11791;SDS011;5953;52.372;9.918;2022-07-01T02:55:43;1.80;;;1.70;;
11791;SDS011;5953;52.372;9.918;2022-07-01T02:58:11;2.00;;;1.90;;
11791;SDS011;5953;52.372;9.918;2022-07-01T03:00:39;1.80;;;1.70;;
11791;SDS011;5953;52.372;9.918;2022-07-01T03:03:07;1.83;;;1.60;;
11791;SDS011;5953;52.372;9.918;2022-07-01T03:05:36;1.80;;;1.70;;
11791;SDS011;5953;52.372;9.918;2022-07-01T03:08:04;1.93;;;1.70;;
11791;SDS011;5953;52.372;9.918;2022-07-01T03:10:32;2.37;;;1.77;;
11791;SDS011;5953;52.372;9.918;2022-07-01T03:13:00;3.27;;;1.90;;
11791;SDS011;5953;52.372;9.918;2022-07-01T03:15:28;2.40;;;2.10;;
11791;SDS011;5953;52.372;9.918;2022-07-01T03:17:56;2.53;;;2.33;;
11791;SDS011;5953;52.372;9.918;2022-07-01T03:20:24;2.67;;;2.47;;
11791;SDS011;5953;52.372;9.918;2022-07-01T03:22:53;2.93;;;2.20;;
11791;SDS011;5953;52.372;9.918;2022-07-01T03:25:21;2.40;;;2.20;;
11791;SDS011;5953;52.372;9.918;2022-07-01T03:27:49;2.63;;;2.43;;
11791;SDS011;5953;52.372;9.918;2022-07-01T03:30:18;2.93;;;2.63;;
11791;SDS011;5953;52.372;9.918;2022-07-01T03:32:46;3.00;;;2.67;;
11791;SDS011;5953;52.372;9.918;2022-07-01T03:35:14;5.03;;;3.13;;
11791;SDS011;5953;52.372;9.918;2022-07-01T03:38:01;5.07;;;3.50;;
11791;SDS011;5953;52.372;9.918;2022-07-01T03:40:30;3.70;;;3.40;;
11791;SDS011;5953;52.372;9.918;2022-07-01T03:42:58;3.80;;;3.00;;
11791;SDS011;5953;52.372;9.918;2022-07-01T03:45:29;3.23;;;2.93;;
11791;SDS011;5953;52.372;9.918;2022-07-01T03:47:57;3.83;;;3.17;;
11791;SDS011;5953;52.372;9.918;2022-07-01T03:50:25;5.93;;;2.40;;
11791;SDS011;5953;52.372;9.918;2022-07-01T03:52:53;3.07;;;2.77;;
11791;SDS011;5953;52.372;9.918;2022-07-01T03:55:36;4.43;;;2.67;;
11791;SDS011;5953;52.372;9.918;2022-07-01T03:58:05;3.60;;;2.53;;
11791;SDS011;5953;52.372;9.918;2022-07-01T04:00:33;2.80;;;2.33;;
11791;SDS011;5953;52.372;9.918;2022-07-01T04:03:02;3.23;;;2.93;;
11791;SDS011;5953;52.372;9.918;2022-07-01T04:05:31;5.10;;;3.13;;
11791;SDS011;5953;52.372;9.918;2022-07-01T04:08:01;3.20;;;2.90;;
11791;SDS011;5953;52.372;9.918;2022-07-01T04:10:30;4.37;;;3.07;;
11791;SDS011;5953;52.372;9.918;2022-07-01T04:13:00;3.97;;;2.63;;
11791;SDS011;5953;52.372;9.918;2022-07-01T04:15:49;3.30;;;2.70;;
11791;SDS011;5953;52.372;9.918;2022-07-01T04:18:17;3.03;;;2.60;;
11791;SDS011;5953;52.372;9.918;2022-07-01T04:20:45;3.40;;;2.50;;
11791;SDS011;5953;52.372;9.918;2022-07-01T04:23:33;3.00;;;2.70;;
11791;SDS011;5953;52.372;9.918;2022-07-01T04:26:00;3.27;;;2.77;;
11791;SDS011;5953;52.372;9.918;2022-07-01T04:28:49;4.83;;;2.70;;
11791;SDS011;5953;52.372;9.918;2022-07-01T04:31:18;5.13;;;2.53;;
11791;SDS011;5953;52.372;9.918;2022-07-01T04:33:46;4.40;;;2.70;;
11791;SDS011;5953;52.372;9.918;2022-07-01T04:36:14;2.67;;;2.40;;
11791;SDS011;5953;52.372;9.918;2022-07-01T04:38:42;3.07;;;2.40;;
11791;SDS011;5953;52.372;9.918;2022-07-01T04:41:10;4.27;;;2.60;;
11791;SDS011;5953;52.372;9.918;2022-07-01T04:43:57;2.83;;;2.13;;
11791;SDS011;5953;52.372;9.918;2022-07-01T04:46:24;3.70;;;2.60;;
11791;SDS011;5953;52.372;9.918;2022-07-01T04:48:52;2.90;;;2.10;;
11791;SDS011;5953;52.372;9.918;2022-07-01T04:51:21;5.43;;;2.97;;
11791;SDS011;5953;52.372;9.918;2022-07-01T04:53:50;4.63;;;2.50;;
11791;SDS011;5953;52.372;9.918;2022-07-01T04:56:18;5.97;;;3.03;;
11791;SDS011;5953;52.372;9.918;2022-07-01T04:58:46;3.07;;;2.77;;
11791;SDS011;5953;52.372;9.918;2022-07-01T05:01:15;2.73;;;2.13;;
11791;SDS011;5953;52.372;9.918;2022-07-01T05:03:44;3.47;;;2.43;;
11791;SDS011;5953;52.372;9.918;2022-07-01T05:06:12;3.23;;;2.77;;
11791;SDS011;5953;52.372;9.918;2022-07-01T05:08:39;3.43;;;2.80;;
11791;SDS011;5953;52.372;9.918;2022-07-01T05:11:07;3.20;;;2.90;;
11791;SDS011;5953;52.372;9.918;2022-07-01T05:13:36;5.40;;;3.00;;
11791;SDS011;5953;52.372;9.918;2022-07-01T05:16:04;4.90;;;2.67;;
11791;SDS011;5953;52.372;9.918;2022-07-01T05:18:34;3.93;;;2.63;;
11791;SDS011;5953;52.372;9.918;2022-07-01T05:21:19;3.70;;;2.40;;
11791;SDS011;5953;52.372;9.918;2022-07-01T05:24:05;3.80;;;3.03;;
11791;SDS011;5953;52.372;9.918;2022-07-01T05:26:34;3.73;;;2.53;;
11791;SDS011;5953;52.372;9.918;2022-07-01T05:29:02;5.57;;;3.37;;
11791;SDS011;5953;52.372;9.918;2022-07-01T05:31:30;3.97;;;2.97;;
11791;SDS011;5953;52.372;9.918;2022-07-01T05:34:00;6.47;;;3.80;;
11791;SDS011;5953;52.372;9.918;2022-07-01T05:36:30;3.47;;;2.87;;
11791;SDS011;5953;52.372;9.918;2022-07-01T05:38:58;4.83;;;3.23;;
11791;SDS011;5953;52.372;9.918;2022-07-01T05:41:27;5.03;;;3.27;;
11791;SDS011;5953;52.372;9.918;2022-07-01T05:43:55;5.47;;;3.47;;
11791;SDS011;5953;52.372;9.918;2022-07-01T05:46:23;4.40;;;4.00;;
11791;SDS011;5953;52.372;9.918;2022-07-01T05:48:51;5.83;;;4.93;;
11791;SDS011;5953;52.372;9.918;2022-07-01T05:51:20;5.50;;;4.97;;
11791;SDS011;5953;52.372;9.918;2022-07-01T05:53:48;5.77;;;4.63;;
11791;SDS011;5953;52.372;9.918;2022-07-01T05:56:16;4.93;;;4.50;;
11791;SDS011;5953;52.372;9.918;2022-07-01T05:58:44;4.60;;;4.03;;
11791;SDS011;5953;52.372;9.918;2022-07-01T06:01:12;8.33;;;4.23;;
11791;SDS011;5953;52.372;9.918;2022-07-01T06:03:40;5.63;;;5.17;;
11791;SDS011;5953;52.372;9.918;2022-07-01T06:06:08;7.83;;;5.00;;
11791;SDS011;5953;52.372;9.918;2022-07-01T06:08:37;9.10;;;5.60;;
11791;SDS011;5953;52.372;9.918;2022-07-01T06:11:05;8.20;;;6.30;;
11791;SDS011;5953;52.372;9.918;2022-07-01T06:13:33;6.10;;;5.53;;
11791;SDS011;5953;52.372;9.918;2022-07-01T06:16:01;6.47;;;5.87;;
11791;SDS011;5953;52.372;9.918;2022-07-01T06:18:29;7.50;;;5.53;;
11791;SDS011;5953;52.372;9.918;2022-07-01T06:20:57;6.20;;;5.57;;
11791;SDS011;5953;52.372;9.918;2022-07-01T06:23:25;8.10;;;5.93;;
11791;SDS011;5953;52.372;9.918;2022-07-01T06:25:54;8.17;;;7.00;;
11791;SDS011;5953;52.372;9.918;2022-07-01T06:28:22;7.33;;;6.63;;
11791;SDS011;5953;52.372;9.918;2022-07-01T06:30:56;7.23;;;5.67;;
11791;SDS011;5953;52.372;9.918;2022-07-01T06:33:25;6.77;;;5.80;;
11791;SDS011;5953;52.372;9.918;2022-07-01T06:35:56;7.07;;;6.37;;
11791;SDS011;5953;52.372;9.918;2022-07-01T06:38:24;7.37;;;6.00;;
11791;SDS011;5953;52.372;9.918;2022-07-01T06:40:52;8.30;;;5.50;;
11791;SDS011;5953;52.372;9.918;2022-07-01T06:43:38;7.13;;;5.53;;
11791;SDS011;5953;52.372;9.918;2022-07-01T06:46:06;5.40;;;4.87;;
11791;SDS011;5953;52.372;9.918;2022-07-01T06:48:34;8.53;;;5.10;;
11791;SDS011;5953;52.372;9.918;2022-07-01T06:51:02;7.60;;;5.50;;
11791;SDS011;5953;52.372;9.918;2022-07-01T06:53:30;8.17;;;4.70;;
11791;SDS011;5953;52.372;9.918;2022-07-01T06:55:58;8.93;;;5.13;;
11791;SDS011;5953;52.372;9.918;2022-07-01T06:58:26;6.23;;;5.53;;
11791;SDS011;5953;52.372;9.918;2022-07-01T07:00:56;6.47;;;5.30;;
11791;SDS011;5953;52.372;9.918;2022-07-01T07:03:23;6.30;;;5.17;;
11791;SDS011;5953;52.372;9.918;2022-07-01T07:05:52;5.57;;;5.07;;
11791;SDS011;5953;52.372;9.918;2022-07-01T07:08:20;7.77;;;5.13;;
11791;SDS011;5953;52.372;9.918;2022-07-01T07:10:48;4.97;;;4.53;;
11791;SDS011;5953;52.372;9.918;2022-07-01T07:13:17;5.90;;;4.67;;
11791;SDS011;5953;52.372;9.918;2022-07-01T07:15:45;5.03;;;4.53;;
11791;SDS011;5953;52.372;9.918;2022-07-01T07:18:14;5.87;;;4.67;;
11791;SDS011;5953;52.372;9.918;2022-07-01T07:20:42;6.43;;;5.13;;
11791;SDS011;5953;52.372;9.918;2022-07-01T07:23:10;7.20;;;5.63;;
11791;SDS011;5953;52.372;9.918;2022-07-01T07:25:38;7.50;;;5.63;;
11791;SDS011;5953;52.372;9.918;2022-07-01T07:28:06;7.00;;;5.97;;
11791;SDS011;5953;52.372;9.918;2022-07-01T07:30:34;5.80;;;5.00;;
11791;SDS011;5953;52.372;9.918;2022-07-01T07:33:02;5.77;;;5.27;;
11791;SDS011;5953;52.372;9.918;2022-07-01T07:35:31;7.60;;;5.17;;
11791;SDS011;5953;52.372;9.918;2022-07-01T07:37:59;5.60;;;4.87;;
11791;SDS011;5953;52.372;9.918;2022-07-01T07:40:27;6.13;;;4.93;;
11791;SDS011;5953;52.372;9.918;2022-07-01T07:42:55;5.87;;;4.70;;
11791;SDS011;5953;52.372;9.918;2022-07-01T07:45:23;5.50;;;5.00;;
11791;SDS011;5953;52.372;9.918;2022-07-01T07:47:51;7.07;;;5.67;;
11791;SDS011;5953;52.372;9.918;2022-07-01T07:50:21;6.63;;;6.03;;
11791;SDS011;5953;52.372;9.918;2022-07-01T07:52:50;7.10;;;6.47;;
11791;SDS011;5953;52.372;9.918;2022-07-01T07:55:18;7.10;;;6.40;;
11791;SDS011;5953;52.372;9.918;2022-07-01T07:57:46;8.60;;;7.37;;
11791;SDS011;5953;52.372;9.918;2022-07-01T08:00:14;9.57;;;7.43;;
11791;SDS011;5953;52.372;9.918;2022-07-01T08:02:43;8.33;;;7.63;;
11791;SDS011;5953;52.372;9.918;2022-07-01T08:05:11;8.10;;;7.30;;
11791;SDS011;5953;52.372;9.918;2022-07-01T08:07:39;7.57;;;6.87;;
11791;SDS011;5953;52.372;9.918;2022-07-01T08:10:11;9.23;;;8.43;;
11791;SDS011;5953;52.372;9.918;2022-07-01T08:12:40;8.73;;;7.93;;
11791;SDS011;5953;52.372;9.918;2022-07-01T08:15:09;8.30;;;7.50;;
11791;SDS011;5953;52.372;9.918;2022-07-01T08:17:37;8.90;;;8.07;;
11791;SDS011;5953;52.372;9.918;2022-07-01T08:20:06;9.17;;;7.20;;
11791;SDS011;5953;52.372;9.918;2022-07-01T08:22:35;8.40;;;7.60;;
11791;SDS011;5953;52.372;9.918;2022-07-01T08:25:03;9.53;;;7.60;;
11791;SDS011;5953;52.372;9.918;2022-07-01T08:27:33;9.43;;;8.43;;
11791;SDS011;5953;52.372;9.918;2022-07-01T08:30:01;8.77;;;7.53;;
11791;SDS011;5953;52.372;9.918;2022-07-01T08:32:30;7.70;;;7.00;;
11791;SDS011;5953;52.372;9.918;2022-07-01T08:34:57;7.70;;;7.10;;
11791;SDS011;5953;52.372;9.918;2022-07-01T08:37:27;7.20;;;6.10;;
11791;SDS011;5953;52.372;9.918;2022-07-01T08:39:55;5.90;;;5.40;;
11791;SDS011;5953;52.372;9.918;2022-07-01T08:42:22;6.70;;;6.00;;
11791;SDS011;5953;52.372;9.918;2022-07-01T08:44:51;6.67;;;5.97;;
11791;SDS011;5953;52.372;9.918;2022-07-01T08:47:19;5.90;;;5.40;;
11791;SDS011;5953;52.372;9.918;2022-07-01T08:49:47;8.47;;;6.40;;
11791;SDS011;5953;52.372;9.918;2022-07-01T08:52:15;7.70;;;6.07;;
11791;SDS011;5953;52.372;9.918;2022-07-01T08:54:43;7.47;;;6.80;;
11791;SDS011;5953;52.372;9.918;2022-07-01T08:57:11;8.30;;;7.17;;
11791;SDS011;5953;52.372;9.918;2022-07-01T08:59:38;8.60;;;7.90;;
11791;SDS011;5953;52.372;9.918;2022-07-01T09:02:08;8.57;;;7.77;;
11791;SDS011;5953;52.372;9.918;2022-07-01T09:04:35;8.60;;;7.80;;
11791;SDS011;5953;52.372;9.918;2022-07-01T09:07:04;7.93;;;7.23;;
11791;SDS011;5953;52.372;9.918;2022-07-01T09:09:34;7.43;;;6.70;;
11791;SDS011;5953;52.372;9.918;2022-07-01T09:12:03;6.63;;;6.03;;
11791;SDS011;5953;52.372;9.918;2022-07-01T09:14:33;7.33;;;6.63;;
11791;SDS011;5953;52.372;9.918;2022-07-01T09:17:04;7.93;;;7.23;;
11791;SDS011;5953;52.372;9.918;2022-07-01T09:19:35;7.40;;;6.80;;
11791;SDS011;5953;52.372;9.918;2022-07-01T09:22:11;7.80;;;7.00;;
11791;SDS011;5953;52.372;9.918;2022-07-01T09:24:40;7.80;;;7.13;;
11791;SDS011;5953;52.372;9.918;2022-07-01T09:27:10;7.00;;;6.23;;
11791;SDS011;5953;52.372;9.918;2022-07-01T09:29:41;7.00;;;6.40;;
11791;SDS011;5953;52.372;9.918;2022-07-01T09:32:10;6.80;;;6.17;;
11791;SDS011;5953;52.372;9.918;2022-07-01T09:34:41;6.97;;;6.27;;
11791;SDS011;5953;52.372;9.918;2022-07-01T09:37:11;6.07;;;5.57;;
11791;SDS011;5953;52.372;9.918;2022-07-01T09:39:43;6.63;;;5.90;;
11791;SDS011;5953;52.372;9.918;2022-07-01T09:42:11;6.03;;;5.43;;
11791;SDS011;5953;52.372;9.918;2022-07-01T09:44:53;5.63;;;4.40;;
11791;SDS011;5953;52.372;9.918;2022-07-01T09:47:29;5.20;;;4.70;;
11791;SDS011;5953;52.372;9.918;2022-07-01T09:49:59;5.80;;;5.20;;
11791;SDS011;5953;52.372;9.918;2022-07-01T09:52:28;6.00;;;4.73;;
11791;SDS011;5953;52.372;9.918;2022-07-01T09:55:03;7.70;;;5.17;;
11791;SDS011;5953;52.372;9.918;2022-07-01T09:57:31;5.83;;;5.33;;
11791;SDS011;5953;52.372;9.918;2022-07-01T09:59:59;6.53;;;5.77;;
11791;SDS011;5953;52.372;9.918;2022-07-01T10:02:27;6.03;;;5.40;;
11791;SDS011;5953;52.372;9.918;2022-07-01T10:05:00;7.17;;;6.47;;
11791;SDS011;5953;52.372;9.918;2022-07-01T10:07:36;7.00;;;6.20;;
11791;SDS011;5953;52.372;9.918;2022-07-01T10:10:19;7.43;;;6.60;;
11791;SDS011;5953;52.372;9.918;2022-07-01T10:12:55;7.77;;;6.97;;
11791;SDS011;5953;52.372;9.918;2022-07-01T10:15:26;8.77;;;7.83;;
11791;SDS011;5953;52.372;9.918;2022-07-01T10:17:54;8.43;;;7.63;;
11791;SDS011;5953;52.372;9.918;2022-07-01T10:20:24;8.33;;;7.50;;
11791;SDS011;5953;52.372;9.918;2022-07-01T10:22:59;7.70;;;7.00;;
11791;SDS011;5953;52.372;9.918;2022-07-01T10:25:38;9.57;;;7.33;;
11791;SDS011;5953;52.372;9.918;2022-07-01T10:28:12;7.70;;;6.60;;
11791;SDS011;5953;52.372;9.918;2022-07-01T10:30:52;7.53;;;6.83;;
11791;SDS011;5953;52.372;9.918;2022-07-01T10:33:26;8.70;;;7.80;;
11791;SDS011;5953;52.372;9.918;2022-07-01T10:36:03;8.43;;;7.63;;
11791;SDS011;5953;52.372;9.918;2022-07-01T10:41:55;8.30;;;7.30;;
11791;SDS011;5953;52.372;9.918;2022-07-01T10:44:58;8.97;;;8.07;;
11791;SDS011;5953;52.372;9.918;2022-07-01T10:47:28;8.27;;;7.47;;
11791;SDS011;5953;52.372;9.918;2022-07-01T10:49:57;11.50;;;9.10;;
11791;SDS011;5953;52.372;9.918;2022-07-01T10:52:27;9.13;;;7.90;;
11791;SDS011;5953;52.372;9.918;2022-07-01T10:54:56;9.43;;;7.43;;
11791;SDS011;5953;52.372;9.918;2022-07-01T10:57:30;9.30;;;8.33;;
11791;SDS011;5953;52.372;9.918;2022-07-01T11:03:05;8.57;;;7.63;;
11791;SDS011;5953;52.372;9.918;2022-07-01T11:05:40;8.87;;;7.60;;
11791;SDS011;5953;52.372;9.918;2022-07-01T11:08:10;8.33;;;7.10;;
11791;SDS011;5953;52.372;9.918;2022-07-01T11:10:49;8.90;;;8.10;;
11791;SDS011;5953;52.372;9.918;2022-07-01T11:13:17;8.63;;;7.77;;
11791;SDS011;5953;52.372;9.918;2022-07-01T11:15:47;8.13;;;7.30;;
11791;SDS011;5953;52.372;9.918;2022-07-01T11:18:16;8.83;;;7.70;;
11791;SDS011;5953;52.372;9.918;2022-07-01T11:20:44;8.57;;;7.67;;
11791;SDS011;5953;52.372;9.918;2022-07-01T11:23:13;9.13;;;7.63;;
11791;SDS011;5953;52.372;9.918;2022-07-01T11:25:42;8.70;;;7.90;;
11791;SDS011;5953;52.372;9.918;2022-07-01T11:28:11;9.53;;;8.03;;
11791;SDS011;5953;52.372;9.918;2022-07-01T11:30:39;11.00;;;8.67;;
11791;SDS011;5953;52.372;9.918;2022-07-01T11:33:07;10.63;;;9.27;;
11791;SDS011;5953;52.372;9.918;2022-07-01T11:35:37;11.57;;;8.53;;
11791;SDS011;5953;52.372;9.918;2022-07-01T11:38:25;13.40;;;8.63;;
11791;SDS011;5953;52.372;9.918;2022-07-01T11:41:17;11.87;;;7.87;;
11791;SDS011;5953;52.372;9.918;2022-07-01T11:43:46;9.90;;;8.20;;
11791;SDS011;5953;52.372;9.918;2022-07-01T11:46:15;9.47;;;8.60;;
11791;SDS011;5953;52.372;9.918;2022-07-01T11:48:44;8.73;;;7.80;;
11791;SDS011;5953;52.372;9.918;2022-07-01T11:51:16;10.83;;;8.67;;
11791;SDS011;5953;52.372;9.918;2022-07-01T11:53:47;9.60;;;8.57;;
11791;SDS011;5953;52.372;9.918;2022-07-01T11:56:16;8.87;;;8.03;;
11791;SDS011;5953;52.372;9.918;2022-07-01T11:58:54;9.50;;;8.47;;
11791;SDS011;5953;52.372;9.918;2022-07-01T12:01:27;9.63;;;8.63;;
11791;SDS011;5953;52.372;9.918;2022-07-01T12:03:56;9.40;;;8.50;;
11791;SDS011;5953;52.372;9.918;2022-07-01T12:06:26;9.33;;;8.40;;
11791;SDS011;5953;52.372;9.918;2022-07-01T12:08:56;11.40;;;8.83;;
11791;SDS011;5953;52.372;9.918;2022-07-01T12:11:24;9.43;;;8.53;;
11791;SDS011;5953;52.372;9.918;2022-07-01T12:13:54;8.27;;;7.40;;
11791;SDS011;5953;52.372;9.918;2022-07-01T12:16:24;8.97;;;8.07;;
11791;SDS011;5953;52.372;9.918;2022-07-01T12:18:53;8.50;;;7.60;;
11791;SDS011;5953;52.372;9.918;2022-07-01T12:21:23;7.07;;;6.20;;
11791;SDS011;5953;52.372;9.918;2022-07-01T12:26:49;6.03;;;4.93;;
11791;SDS011;5953;52.372;9.918;2022-07-01T12:29:19;5.33;;;4.50;;
11791;SDS011;5953;52.372;9.918;2022-07-01T12:32:12;4.70;;;4.20;;
11791;SDS011;5953;52.372;9.918;2022-07-01T12:34:43;5.63;;;4.70;;
11791;SDS011;5953;52.372;9.918;2022-07-01T12:37:12;5.30;;;4.17;;
11791;SDS011;5953;52.372;9.918;2022-07-01T12:39:44;4.60;;;4.20;;
11791;SDS011;5953;52.372;9.918;2022-07-01T12:42:20;5.40;;;4.00;;
11791;SDS011;5953;52.372;9.918;2022-07-01T12:44:54;5.33;;;3.93;;
11791;SDS011;5953;52.372;9.918;2022-07-01T12:47:26;4.37;;;3.47;;
11791;SDS011;5953;52.372;9.918;2022-07-01T12:50:08;3.93;;;3.43;;
11791;SDS011;5953;52.372;9.918;2022-07-01T12:52:38;4.23;;;3.60;;
11791;SDS011;5953;52.372;9.918;2022-07-01T12:55:16;4.03;;;3.37;;
11791;SDS011;5953;52.372;9.918;2022-07-01T12:57:47;4.53;;;3.63;;
11791;SDS011;5953;52.372;9.918;2022-07-01T13:00:16;4.30;;;3.90;;
11791;SDS011;5953;52.372;9.918;2022-07-01T13:02:45;4.40;;;4.00;;
11791;SDS011;5953;52.372;9.918;2022-07-01T13:05:13;4.40;;;3.97;;
11791;SDS011;5953;52.372;9.918;2022-07-01T13:07:41;4.40;;;4.00;;
11791;SDS011;5953;52.372;9.918;2022-07-01T13:10:11;4.33;;;3.93;;
11791;SDS011;5953;52.372;9.918;2022-07-01T13:12:41;4.87;;;3.90;;
11791;SDS011;5953;52.372;9.918;2022-07-01T13:15:10;4.97;;;3.60;;
11791;SDS011;5953;52.372;9.918;2022-07-01T13:17:38;5.53;;;3.87;;
11791;SDS011;5953;52.372;9.918;2022-07-01T13:20:07;4.50;;;4.10;;
11791;SDS011;5953;52.372;9.918;2022-07-01T13:22:35;6.90;;;4.03;;
11791;SDS011;5953;52.372;9.918;2022-07-01T13:25:03;5.17;;;4.40;;
11791;SDS011;5953;52.372;9.918;2022-07-01T13:27:32;3.90;;;3.60;;
11791;SDS011;5953;52.372;9.918;2022-07-01T13:30:01;4.40;;;3.97;;
11791;SDS011;5953;52.372;9.918;2022-07-01T13:32:30;3.93;;;3.50;;
11791;SDS011;5953;52.372;9.918;2022-07-01T13:34:58;4.40;;;4.00;;
11791;SDS011;5953;52.372;9.918;2022-07-01T13:37:26;4.37;;;3.97;;
11791;SDS011;5953;52.372;9.918;2022-07-01T13:39:54;4.73;;;4.07;;
11791;SDS011;5953;52.372;9.918;2022-07-01T13:42:22;5.50;;;3.90;;
11791;SDS011;5953;52.372;9.918;2022-07-01T13:44:50;5.93;;;4.00;;
11791;SDS011;5953;52.372;9.918;2022-07-01T13:47:19;4.40;;;4.00;;
11791;SDS011;5953;52.372;9.918;2022-07-01T13:49:47;5.57;;;4.20;;
11791;SDS011;5953;52.372;9.918;2022-07-01T13:52:15;4.73;;;3.47;;
11791;SDS011;5953;52.372;9.918;2022-07-01T13:54:43;5.27;;;4.57;;
11791;SDS011;5953;52.372;9.918;2022-07-01T13:57:11;4.77;;;4.03;;
11791;SDS011;5953;52.372;9.918;2022-07-01T13:59:39;6.07;;;3.50;;
11791;SDS011;5953;52.372;9.918;2022-07-01T14:02:08;5.03;;;4.60;;
11791;SDS011;5953;52.372;9.918;2022-07-01T14:04:38;5.03;;;3.80;;
11791;SDS011;5953;52.372;9.918;2022-07-01T14:07:06;4.80;;;3.83;;
11791;SDS011;5953;52.372;9.918;2022-07-01T14:09:34;5.53;;;3.90;;
11791;SDS011;5953;52.372;9.918;2022-07-01T14:12:03;3.67;;;3.30;;
11791;SDS011;5953;52.372;9.918;2022-07-01T14:14:39;4.97;;;3.97;;
11791;SDS011;5953;52.372;9.918;2022-07-01T14:17:06;5.20;;;4.70;;
11791;SDS011;5953;52.372;9.918;2022-07-01T14:19:34;6.63;;;4.03;;
11791;SDS011;5953;52.372;9.918;2022-07-01T14:22:04;5.73;;;4.17;;
11791;SDS011;5953;52.372;9.918;2022-07-01T14:24:32;5.03;;;3.80;;
11791;SDS011;5953;52.372;9.918;2022-07-01T14:27:00;5.07;;;4.00;;
11791;SDS011;5953;52.372;9.918;2022-07-01T14:29:28;5.47;;;3.73;;
11791;SDS011;5953;52.372;9.918;2022-07-01T14:31:56;5.80;;;4.10;;
11791;SDS011;5953;52.372;9.918;2022-07-01T14:34:26;4.57;;;3.93;;
11791;SDS011;5953;52.372;9.918;2022-07-01T14:36:54;4.27;;;3.40;;
11791;SDS011;5953;52.372;9.918;2022-07-01T14:39:23;7.67;;;3.87;;
11791;SDS011;5953;52.372;9.918;2022-07-01T14:41:51;4.87;;;3.60;;
11791;SDS011;5953;52.372;9.918;2022-07-01T14:44:22;3.90;;;3.43;;
11791;SDS011;5953;52.372;9.918;2022-07-01T14:46:50;4.10;;;3.07;;
11791;SDS011;5953;52.372;9.918;2022-07-01T14:49:18;7.17;;;3.00;;
11791;SDS011;5953;52.372;9.918;2022-07-01T14:51:46;2.80;;;2.60;;
11791;SDS011;5953;52.372;9.918;2022-07-01T14:54:14;4.13;;;2.80;;
11791;SDS011;5953;52.372;9.918;2022-07-01T14:56:43;3.23;;;2.93;;
11791;SDS011;5953;52.372;9.918;2022-07-01T14:59:11;5.00;;;2.83;;
11791;SDS011;5953;52.372;9.918;2022-07-01T15:01:40;4.37;;;3.10;;
11791;SDS011;5953;52.372;9.918;2022-07-01T15:04:08;4.10;;;2.90;;
11791;SDS011;5953;52.372;9.918;2022-07-01T15:06:36;3.13;;;2.70;;
11791;SDS011;5953;52.372;9.918;2022-07-01T15:09:04;2.67;;;2.30;;
11791;SDS011;5953;52.372;9.918;2022-07-01T15:11:32;3.13;;;2.47;;
11791;SDS011;5953;52.372;9.918;2022-07-01T15:14:01;4.20;;;2.50;;
11791;SDS011;5953;52.372;9.918;2022-07-01T15:16:30;4.27;;;2.83;;
11791;SDS011;5953;52.372;9.918;2022-07-01T15:18:58;2.73;;;2.23;;
11791;SDS011;5953;52.372;9.918;2022-07-01T15:21:26;4.70;;;2.80;;
11791;SDS011;5953;52.372;9.918;2022-07-01T15:23:54;2.93;;;2.20;;
11791;SDS011;5953;52.372;9.918;2022-07-01T15:26:23;4.10;;;2.80;;